createdAt,value
2022-09-21T00:00:24.298Z,102952.09
2022-09-21T00:05:25.891Z,102957.00
2022-09-21T00:10:27.426Z,102951.06
2022-09-21T00:15:30.253Z,102946.94
2022-09-21T00:20:31.766Z,102955.94
2022-09-21T00:25:33.306Z,102948.88
2022-09-21T00:30:34.818Z,102946.09
2022-09-21T00:35:36.300Z,102952.34
2022-09-21T00:40:37.800Z,102955.03
2022-09-21T00:45:39.582Z,102945.72
2022-09-21T00:50:47.105Z,102950.81
2022-09-21T00:55:57.311Z,102942.06
2022-09-21T01:01:01.058Z,102955.72
2022-09-21T01:06:03.061Z,102958.47
2022-09-21T01:11:13.720Z,102954.13
2022-09-21T01:16:33.195Z,102950.03
2022-09-21T01:21:48.577Z,102959.53
2022-09-21T01:27:20.899Z,102955.47
2022-09-21T01:32:26.965Z,102950.59
2022-09-21T01:37:43.266Z,102951.69
2022-09-21T01:42:48.019Z,102948.34
2022-09-21T01:47:51.156Z,102948.97
2022-09-21T01:53:09.964Z,102944.03
2022-09-21T01:58:53.663Z,102941.75
2022-09-21T02:04:04.235Z,102946.84
2022-09-21T02:09:05.854Z,102948.41
2022-09-21T02:14:15.226Z,102946.63
2022-09-21T02:19:22.150Z,102942.28
2022-09-21T02:24:47.199Z,102950.84
2022-09-21T02:30:11.704Z,102937.56
2022-09-21T02:35:31.318Z,102946.84
2022-09-21T02:40:38.220Z,102947.13
2022-09-21T02:45:47.250Z,102944.31
2022-09-21T02:50:53.512Z,102933.97
2022-09-21T02:55:58.050Z,102939.72
2022-09-21T03:00:59.927Z,102940.84
2022-09-21T03:06:02.159Z,102937.41
2022-09-21T03:11:03.850Z,102939.72
2022-09-21T03:16:07.276Z,102946.06
2022-09-21T03:21:08.966Z,102949.66
2022-09-21T03:26:10.438Z,102942.75
2022-09-21T03:31:12.298Z,102940.69
2022-09-21T03:42:50.483Z,102953.94
2022-09-21T03:47:55.666Z,102950.09
2022-09-21T03:52:57.531Z,102949.22
2022-09-21T03:57:59.034Z,102971.66
2022-09-21T04:03:02.153Z,102964.28
2022-09-21T04:08:03.809Z,102970.78
2022-09-21T04:13:06.538Z,102970.88
2022-09-21T04:18:08.434Z,102967.00
2022-09-21T04:23:10.105Z,102968.69
2022-09-21T04:28:11.598Z,102968.69
2022-09-21T04:33:14.204Z,102966.56
2022-09-21T04:38:15.665Z,102973.78
2022-09-21T04:43:22.040Z,102971.47
2022-09-21T04:49:29.855Z,102973.72
2022-09-21T04:54:31.442Z,102978.81
2022-09-21T04:59:32.906Z,102981.34
2022-09-21T05:04:34.379Z,102978.81
2022-09-21T05:09:54.430Z,102982.06
2022-09-21T05:14:56.082Z,102985.06
2022-09-21T05:19:57.554Z,102994.72
2022-09-21T05:25:02.764Z,103006.69
2022-09-21T05:30:06.806Z,103004.22
2022-09-21T05:35:38.587Z,103008.31
2022-09-21T05:40:42.882Z,103019.22
2022-09-21T05:45:47.872Z,103019.63
2022-09-21T05:51:05.816Z,103030.13
2022-09-21T05:56:21.705Z,103030.19
2022-09-21T06:01:47.818Z,103037.81
2022-09-21T06:06:49.701Z,103042.56
2022-09-21T06:11:51.658Z,103052.72
2022-09-21T06:16:53.245Z,103052.97
2022-09-21T06:21:54.782Z,103062.38
2022-09-21T06:26:56.523Z,103061.75
2022-09-21T06:31:57.990Z,103063.56
2022-09-21T06:36:59.463Z,103057.41
2022-09-21T06:42:00.954Z,103050.63
2022-09-21T06:47:03.402Z,103034.91
2022-09-21T06:52:04.985Z,103002.50
2022-09-21T06:57:06.455Z,102984.13
2022-09-21T07:02:09.311Z,102940.94
2022-09-21T07:07:11.244Z,102894.69
2022-09-21T07:12:15.001Z,102833.28
2022-09-21T07:17:16.536Z,102808.88
2022-09-21T07:22:21.799Z,102816.97
2022-09-21T07:27:24.905Z,102835.53
2022-09-21T07:32:26.409Z,102814.31
2022-09-21T07:37:46.263Z,102791.13
2022-09-21T07:42:47.781Z,102753.97
2022-09-21T07:47:49.249Z,102742.47
2022-09-21T07:52:50.726Z,102736.91
2022-09-21T07:58:10.859Z,102720.50
2022-09-21T08:03:13.377Z,102713.03
2022-09-21T08:08:16.871Z,102742.19
2022-09-21T08:13:18.487Z,102728.97
2022-09-21T08:18:20.978Z,102725.13
2022-09-21T08:23:22.783Z,102733.53
2022-09-21T08:28:25.462Z,102721.84
2022-09-21T08:33:29.633Z,102716.34
2022-09-21T08:38:36.162Z,102717.66
2022-09-21T08:43:43.910Z,102719.22
2022-09-21T08:49:14.732Z,102702.19
2022-09-21T08:54:53.490Z,102698.34
2022-09-21T08:59:54.991Z,102697.84
2022-09-21T09:05:33.590Z,102697.28
2022-09-21T09:10:47.604Z,102703.94
2022-09-21T09:16:05.638Z,102697.31
2022-09-21T09:21:26.152Z,102707.56
2022-09-21T09:26:34.196Z,102704.84
2022-09-21T09:31:37.965Z,102702.06
2022-09-21T09:36:58.226Z,102706.44
2022-09-21T09:42:14.381Z,102700.09
2022-09-21T09:47:36.491Z,102696.72
2022-09-21T09:52:38.008Z,102683.91
2022-09-21T09:57:39.930Z,102693.50
2022-09-21T10:02:51.463Z,102689.47
2022-09-21T10:07:53.475Z,102686.81
2022-09-21T10:13:27.107Z,102684.59
2022-09-21T10:18:51.062Z,102684.78
2022-09-21T10:24:03.086Z,102683.53
2022-09-21T10:29:25.473Z,102678.91
2022-09-21T10:34:30.379Z,102674.34
2022-09-21T10:39:35.015Z,102668.63
2022-09-21T10:44:40.774Z,102677.91
2022-09-21T10:49:46.362Z,102672.78
2022-09-21T10:54:52.236Z,102666.53
2022-09-21T10:59:53.935Z,102660.09
2022-09-21T11:05:03.449Z,102654.50
2022-09-21T11:10:23.497Z,102659.66
2022-09-21T11:15:45.821Z,102654.09
2022-09-21T11:20:57.650Z,102663.78
2022-09-21T11:26:14.303Z,102667.16
2022-09-21T11:31:46.704Z,102670.69
2022-09-21T11:37:15.599Z,102655.19
2022-09-21T11:42:35.199Z,102643.97
2022-09-21T11:47:51.961Z,102651.63
2022-09-21T11:53:06.951Z,102653.34
2022-09-21T11:58:53.024Z,102645.72
2022-09-21T12:04:03.884Z,102642.72
2022-09-21T12:09:24.613Z,102639.41
2022-09-21T12:14:47.907Z,102628.41
2022-09-21T12:20:09.629Z,102622.44
2022-09-21T12:25:23.626Z,102613.88
2022-09-21T12:30:25.426Z,102612.56
2022-09-21T12:35:30.042Z,102605.97
2022-09-21T12:40:51.723Z,102599.34
2022-09-21T12:45:56.184Z,102601.69
2022-09-21T12:51:11.102Z,102597.75
2022-09-21T12:56:35.214Z,102591.50
2022-09-21T13:01:44.659Z,102585.41
2022-09-21T13:06:50.476Z,102592.19
2022-09-21T13:12:07.502Z,102579.03
2022-09-21T13:17:21.526Z,102579.25
2022-09-21T13:22:25.846Z,102573.41
2022-09-21T13:28:00.863Z,102565.19
2022-09-21T13:33:05.620Z,102575.22
2022-09-21T13:38:45.258Z,102575.94
2022-09-21T13:43:54.871Z,102567.09
2022-09-21T13:48:56.477Z,102566.25
2022-09-21T13:54:00.009Z,102563.75
2022-09-21T13:59:01.588Z,102555.84
2022-09-21T14:04:18.016Z,102548.38
2022-09-21T14:09:36.839Z,102539.19
2022-09-21T14:14:41.451Z,102544.50
2022-09-21T14:19:42.903Z,102537.47
2022-09-21T14:25:09.489Z,102539.19
2022-09-21T14:30:23.113Z,102536.31
2022-09-21T14:35:38.432Z,102544.81
2022-09-21T14:40:51.927Z,102539.19
2022-09-21T14:46:23.973Z,102531.22
2022-09-21T14:52:22.493Z,102528.09
2022-09-21T14:57:59.783Z,102511.75
2022-09-21T15:03:35.775Z,102523.34
2022-09-21T15:09:31.686Z,102516.22
2022-09-21T15:14:47.351Z,102505.41
2022-09-21T15:19:50.009Z,102502.06
2022-09-21T15:24:54.496Z,102501.41
2022-09-21T15:29:56.661Z,102503.25
2022-09-21T15:35:02.188Z,102497.88
2022-09-21T15:40:11.450Z,102494.41
2022-09-21T15:45:18.737Z,102495.84
2022-09-21T15:50:21.576Z,102488.72
2022-09-21T15:55:23.903Z,102485.44
2022-09-21T16:00:31.197Z,102487.19
2022-09-21T16:05:43.278Z,102480.66
2022-09-21T16:10:45.586Z,102472.78
2022-09-21T16:16:00.772Z,102474.72
2022-09-21T16:21:19.769Z,102471.13
2022-09-21T16:26:32.089Z,102469.19
2022-09-21T16:31:38.478Z,102467.78
2022-09-21T16:36:41.847Z,102475.13
2022-09-21T16:41:47.369Z,102474.03
2022-09-21T16:46:53.869Z,102470.91
2022-09-21T16:51:58.602Z,102486.66
2022-09-21T16:57:03.576Z,102494.38
2022-09-21T17:02:05.731Z,102501.50
2022-09-21T17:07:07.471Z,102500.28
2022-09-21T17:12:11.600Z,102510.41
2022-09-21T17:17:18.221Z,102493.41
2022-09-21T17:22:20.196Z,102501.94
2022-09-21T17:27:24.289Z,102503.75
2022-09-21T17:32:26.807Z,102520.66
2022-09-21T17:37:33.753Z,102509.03
2022-09-21T17:42:41.156Z,102500.91
2022-09-21T17:47:42.847Z,102504.25
2022-09-21T17:53:03.342Z,102512.00
2022-09-21T17:58:19.185Z,102532.03
2022-09-21T18:03:25.423Z,102534.91
2022-09-21T18:08:33.937Z,102554.25
2022-09-21T18:13:42.304Z,102558.56
2022-09-21T18:18:50.698Z,102555.41
2022-09-21T18:24:01.342Z,102574.50
2022-09-21T18:29:22.420Z,102576.94
2022-09-21T18:34:29.256Z,102574.19
2022-09-21T18:40:02.471Z,102589.31
2022-09-21T18:45:12.548Z,102587.09
2022-09-21T18:50:17.076Z,102572.53
2022-09-21T18:55:27.456Z,102576.38
2022-09-21T19:00:35.026Z,102577.09
2022-09-21T19:05:40.098Z,102586.81
2022-09-21T19:11:04.515Z,102602.78
2022-09-21T19:16:22.827Z,102623.63
2022-09-21T19:21:45.687Z,102644.50
2022-09-21T19:27:06.461Z,102655.63
2022-09-21T19:32:14.587Z,102669.72
2022-09-21T19:37:16.342Z,102687.38
2022-09-21T19:42:30.315Z,102695.63
2022-09-21T19:47:38.830Z,102694.47
2022-09-21T19:52:40.552Z,102701.56
2022-09-21T19:58:14.526Z,102705.03
2022-09-21T20:03:31.226Z,102679.25
2022-09-21T20:08:48.885Z,102682.22
2022-09-21T20:14:06.342Z,102683.78
2022-09-21T20:19:21.144Z,102701.53
2022-09-21T20:24:41.957Z,102703.50
2022-09-21T20:29:46.733Z,102719.88
2022-09-21T20:34:50.203Z,102706.06
2022-09-21T20:39:51.752Z,102708.59
2022-09-21T20:44:53.942Z,102713.19
2022-09-21T20:49:55.534Z,102715.03
2022-09-21T20:54:57.052Z,102717.13
2022-09-21T21:00:00.327Z,102719.84
2022-09-21T21:05:02.085Z,102725.38
2022-09-21T21:10:03.968Z,102735.31
2022-09-21T21:15:06.531Z,102735.97
2022-09-21T21:20:12.447Z,102727.09
2022-09-21T21:25:14.034Z,102730.00
2022-09-21T21:30:18.305Z,102730.69
2022-09-21T21:35:21.675Z,102736.06
2022-09-21T21:40:25.868Z,102743.00
2022-09-21T21:45:30.357Z,102738.06
2022-09-21T21:50:31.907Z,102739.84
2022-09-21T21:55:35.990Z,102730.41
2022-09-21T22:00:40.835Z,102736.00
2022-09-21T22:05:42.380Z,102723.38
2022-09-21T22:10:50.543Z,102724.63
2022-09-21T22:15:52.973Z,102733.63
2022-09-21T22:20:54.614Z,102723.63
2022-09-21T22:26:11.192Z,102727.06
2022-09-21T22:31:15.819Z,102728.50
2022-09-21T22:36:19.186Z,102735.38
2022-09-21T22:41:24.575Z,102732.03
2022-09-21T22:46:28.014Z,102737.44
2022-09-21T22:51:30.009Z,102737.78
2022-09-21T22:56:33.173Z,102734.19
2022-09-21T23:01:37.936Z,102743.97
2022-09-21T23:06:42.218Z,102738.66
2022-09-21T23:11:48.481Z,102735.16
2022-09-21T23:16:50.527Z,102817.53
2022-09-21T23:21:53.023Z,102813.25
2022-09-21T23:27:04.563Z,102809.91
2022-09-21T23:32:06.379Z,102816.63
2022-09-21T23:37:07.999Z,102813.06
2022-09-21T23:42:09.747Z,102808.72
2022-09-21T23:47:11.213Z,102805.41
2022-09-21T23:52:12.726Z,102801.59
2022-09-21T23:57:14.190Z,102803.13
